Time;durP1;ratioP1;P1;durP2;ratioP2;P2;SDS_P1;SDS_P2;PMS_P1;PMS_P2;Temp;Humidity;BMP_temperature;BMP_pressure;BME280_temperature;BME280_humidity;BME280_pressure;Samples;Min_cycle;Max_cycle;Signal;HPM_P1;HPM_P2
2022/10/17 00:00:50;;;;;;;;;;;15.40;99.90;;;;;;5095812;28;19908;-74
2022/10/17 00:03:16;;;;;;;;;;;15.40;99.90;;;;;;5095829;28;19950;-74
2022/10/17 00:05:43;;;;;;;;;;;15.40;99.90;;;;;;5095665;28;19935;-75
2022/10/17 00:08:10;;;;;;;;;;;15.40;99.90;;;;;;5095640;28;19904;-75
2022/10/17 00:10:35;;;;;;;;;;;15.40;99.90;;;;;;5095950;28;19908;-75
2022/10/17 00:13:02;;;;;;;;;;;15.40;99.90;;;;;;5095566;28;19904;-74
2022/10/17 00:15:27;;;;;;;;;;;15.30;99.90;;;;;;5095833;28;19907;-75
2022/10/17 00:17:53;;;;;;;;;;;15.40;99.90;;;;;;5095559;28;19927;-76
2022/10/17 00:20:18;;;;;;;;;;;15.40;99.90;;;;;;5095455;28;19904;-75
2022/10/17 00:22:44;;;;;;;;;;;15.40;99.90;;;;;;5095995;28;19908;-75
2022/10/17 00:25:10;;;;;;;;;;;15.40;99.90;;;;;;5094847;28;20275;-75
2022/10/17 00:27:39;;;;;;;;;;;15.40;99.90;;;;;;5095960;28;19908;-75
2022/10/17 00:30:06;;;;;;;;;;;15.50;99.90;;;;;;5095398;28;19995;-74
2022/10/17 00:32:32;;;;;;;;;;;15.50;99.90;;;;;;5094782;28;19962;-75
2022/10/17 00:34:57;;;;;;;;;;;15.50;99.90;;;;;;5095497;28;19951;-74
2022/10/17 00:37:23;;;;;;;;;;;15.60;99.90;;;;;;5095355;28;19904;-75
2022/10/17 00:39:48;;;;;;;;;;;15.60;99.90;;;;;;5095083;28;19904;-75
2022/10/17 00:42:14;;;;;;;;;;;15.60;99.90;;;;;;5094986;28;19957;-74
2022/10/17 00:44:40;;;;;;;;;;;15.70;99.90;;;;;;5095037;28;20355;-75
2022/10/17 00:47:12;;;;;;;;;;;15.60;99.90;;;;;;5095301;28;19916;-75
2022/10/17 00:49:38;;;;;;;;;;;15.70;99.90;;;;;;5094999;28;19908;-74
2022/10/17 00:52:06;;;;;;;;;;;15.70;99.90;;;;;;5094917;28;20413;-74
2022/10/17 00:54:33;;;;;;;;;;;15.70;99.90;;;;;;5094826;28;19908;-75
2022/10/17 00:56:59;;;;;;;;;;;15.70;99.90;;;;;;5095106;28;20365;-74
2022/10/17 00:59:25;;;;;;;;;;;15.70;99.90;;;;;;5095052;28;20000;-74
2022/10/17 01:02:02;;;;;;;;;;;15.70;99.90;;;;;;5076408;28;19904;-75
2022/10/17 01:04:27;;;;;;;;;;;15.70;99.90;;;;;;5094921;28;19912;-75
2022/10/17 01:06:53;;;;;;;;;;;15.70;99.90;;;;;;5094646;28;20050;-75
2022/10/17 01:09:18;;;;;;;;;;;15.80;99.90;;;;;;5094876;28;20267;-75
2022/10/17 01:12:04;;;;;;;;;;;15.80;99.90;;;;;;5094553;28;19904;-75
2022/10/17 01:14:45;;;;;;;;;;;15.80;99.90;;;;;;5080143;28;19904;-75
2022/10/17 01:17:29;;;;;;;;;;;15.80;99.90;;;;;;5094648;28;19942;-75
2022/10/17 01:20:09;;;;;;;;;;;15.80;99.90;;;;;;5094424;28;20380;-75
2022/10/17 01:23:00;;;;;;;;;;;15.80;99.90;;;;;;5094697;28;19904;-75
2022/10/17 01:25:44;;;;;;;;;;;15.80;99.90;;;;;;5076046;28;19907;-75
2022/10/17 01:28:21;;;;;;;;;;;15.90;99.90;;;;;;5094543;28;19958;-74
2022/10/17 01:31:02;;;;;;;;;;;15.90;99.90;;;;;;5093611;28;19912;-75
2022/10/17 01:33:42;;;;;;;;;;;15.90;99.90;;;;;;5094260;28;19954;-74
2022/10/17 01:36:14;;;;;;;;;;;15.90;99.90;;;;;;5094752;28;19930;-74
2022/10/17 01:38:51;;;;;;;;;;;15.90;99.90;;;;;;5094342;28;19957;-74
2022/10/17 01:41:35;;;;;;;;;;;15.90;99.90;;;;;;5094269;28;19904;-74
2022/10/17 01:44:01;;;;;;;;;;;15.90;99.90;;;;;;5094296;28;20010;-75
2022/10/17 01:46:26;;;;;;;;;;;15.90;99.90;;;;;;5094037;28;19958;-75
2022/10/17 01:48:52;;;;;;;;;;;15.90;99.90;;;;;;5094563;28;20352;-74
2022/10/17 01:51:21;;;;;;;;;;;15.90;99.90;;;;;;5093927;28;19908;-75
2022/10/17 01:53:59;;;;;;;;;;;15.90;99.90;;;;;;5094259;28;19911;-75
2022/10/17 01:56:26;;;;;;;;;;;15.90;99.90;;;;;;5093952;28;19911;-75
2022/10/17 01:58:55;;;;;;;;;;;15.90;99.90;;;;;;5093956;28;20383;-75
2022/10/17 02:01:20;;;;;;;;;;;15.90;99.90;;;;;;5093789;28;19904;-74
2022/10/17 02:03:47;;;;;;;;;;;15.90;99.90;;;;;;5093720;28;19908;-75
2022/10/17 02:06:13;;;;;;;;;;;15.90;99.90;;;;;;5075750;28;20344;-75
2022/10/17 02:08:45;;;;;;;;;;;15.90;99.90;;;;;;5094500;28;19904;-76
2022/10/17 02:11:16;;;;;;;;;;;15.90;99.90;;;;;;5093823;28;19957;-75
2022/10/17 02:14:17;;;;;;;;;;;15.90;99.90;;;;;;5093860;28;19911;-74
2022/10/17 02:16:45;;;;;;;;;;;15.90;99.90;;;;;;5011869;28;20304;-74
2022/10/17 02:19:32;;;;;;;;;;;15.90;99.90;;;;;;5078270;28;20360;-75
2022/10/17 02:22:16;;;;;;;;;;;15.90;99.90;;;;;;5094322;28;19904;-75
2022/10/17 02:24:50;;;;;;;;;;;15.90;99.90;;;;;;5093922;28;19957;-75
2022/10/17 02:27:22;;;;;;;;;;;15.90;99.90;;;;;;5093937;28;19904;-74
2022/10/17 02:29:52;;;;;;;;;;;15.90;99.90;;;;;;5094012;28;19915;-75
2022/10/17 02:32:25;;;;;;;;;;;15.90;99.90;;;;;;5092990;28;19965;-75
2022/10/17 02:34:54;;;;;;;;;;;15.90;99.90;;;;;;5093590;28;19990;-74
2022/10/17 02:37:26;;;;;;;;;;;15.90;99.90;;;;;;5075585;28;19977;-74
2022/10/17 02:39:52;;;;;;;;;;;15.90;99.90;;;;;;5093383;28;19910;-75
2022/10/17 02:42:18;;;;;;;;;;;15.90;99.90;;;;;;5094043;28;19908;-75
2022/10/17 02:44:44;;;;;;;;;;;15.90;99.90;;;;;;5093456;28;19908;-75
2022/10/17 02:47:16;;;;;;;;;;;15.90;99.90;;;;;;5094073;28;20382;-75
2022/10/17 02:49:44;;;;;;;;;;;15.90;99.90;;;;;;5096352;28;19904;-75
2022/10/17 02:52:19;;;;;;;;;;;16.00;99.90;;;;;;5097090;28;20348;-75
2022/10/17 02:54:53;;;;;;;;;;;16.00;99.90;;;;;;5097429;28;19911;-74
2022/10/17 02:57:34;;;;;;;;;;;16.00;99.90;;;;;;5097144;28;19904;-75
2022/10/17 03:00:01;;;;;;;;;;;16.00;99.90;;;;;;5097637;28;19904;-74
2022/10/17 03:02:27;;;;;;;;;;;16.00;99.90;;;;;;5096894;28;19926;-74
2022/10/17 03:04:52;;;;;;;;;;;16.00;99.90;;;;;;5097125;28;20364;-75
2022/10/17 03:07:18;;;;;;;;;;;16.00;99.90;;;;;;5096996;28;19908;-74
2022/10/17 03:09:43;;;;;;;;;;;16.00;99.90;;;;;;5096867;28;20360;-75
2022/10/17 03:12:09;;;;;;;;;;;16.00;99.90;;;;;;5097172;28;19910;-74
2022/10/17 03:14:34;;;;;;;;;;;16.00;99.90;;;;;;5078445;28;19904;-74
2022/10/17 03:17:00;;;;;;;;;;;16.00;99.90;;;;;;5096724;28;20284;-75
2022/10/17 03:19:25;;;;;;;;;;;16.00;99.90;;;;;;5096930;28;19991;-75
2022/10/17 03:21:51;;;;;;;;;;;15.90;99.90;;;;;;5096630;28;19999;-75
2022/10/17 03:24:16;;;;;;;;;;;16.00;99.90;;;;;;5096409;28;20331;-75
2022/10/17 03:26:42;;;;;;;;;;;16.00;99.90;;;;;;5096534;28;19910;-74
2022/10/17 03:29:07;;;;;;;;;;;16.00;99.90;;;;;;5096340;28;19915;-74
2022/10/17 03:31:34;;;;;;;;;;;16.00;99.90;;;;;;5096143;28;19923;-74
2022/10/17 03:34:02;;;;;;;;;;;15.90;99.90;;;;;;5096321;28;19912;-74
2022/10/17 03:36:27;;;;;;;;;;;16.00;99.90;;;;;;5096514;28;19908;-75
2022/10/17 03:38:53;;;;;;;;;;;16.00;99.90;;;;;;5096195;28;19935;-74
2022/10/17 03:41:19;;;;;;;;;;;15.90;99.90;;;;;;5096802;28;20421;-75
2022/10/17 03:43:44;;;;;;;;;;;15.90;99.90;;;;;;5096244;28;20018;-74
2022/10/17 03:46:10;;;;;;;;;;;15.90;99.90;;;;;;5096124;28;19904;-75
2022/10/17 03:48:35;;;;;;;;;;;15.90;99.90;;;;;;5096494;28;19972;-74
2022/10/17 03:51:05;;;;;;;;;;;15.90;99.90;;;;;;5096022;28;19911;-75
2022/10/17 03:53:31;;;;;;;;;;;15.90;99.90;;;;;;5096009;28;20379;-74
2022/10/17 03:55:56;;;;;;;;;;;15.90;99.90;;;;;;5096556;28;19904;-74
2022/10/17 03:58:22;;;;;;;;;;;15.90;99.90;;;;;;5095879;28;19905;-75
2022/10/17 04:00:47;;;;;;;;;;;15.90;99.90;;;;;;5095081;28;19915;-75
2022/10/17 04:03:13;;;;;;;;;;;15.90;99.90;;;;;;5096033;28;19904;-75
2022/10/17 04:05:38;;;;;;;;;;;15.90;99.90;;;;;;5096163;28;19908;-75
2022/10/17 04:08:04;;;;;;;;;;;15.80;99.90;;;;;;5095733;28;19961;-75
2022/10/17 04:10:30;;;;;;;;;;;15.80;99.90;;;;;;5095790;28;20344;-75
2022/10/17 04:12:55;;;;;;;;;;;15.80;99.90;;;;;;5096099;28;19911;-75
2022/10/17 04:15:21;;;;;;;;;;;15.80;99.90;;;;;;5095684;28;20433;-74
2022/10/17 04:17:46;;;;;;;;;;;15.80;99.90;;;;;;5095565;28;20002;-75
2022/10/17 04:20:12;;;;;;;;;;;15.80;99.90;;;;;;5095477;28;19904;-75
2022/10/17 04:22:37;;;;;;;;;;;15.80;99.90;;;;;;5095684;28;20351;-75
2022/10/17 04:25:03;;;;;;;;;;;15.80;99.90;;;;;;5095200;28;20356;-75
2022/10/17 04:27:28;;;;;;;;;;;15.80;99.90;;;;;;5095901;28;19912;-75
2022/10/17 04:29:54;;;;;;;;;;;15.80;99.90;;;;;;5095251;28;20374;-75
2022/10/17 04:32:19;;;;;;;;;;;15.80;99.90;;;;;;5094806;28;20341;-74
2022/10/17 04:34:47;;;;;;;;;;;15.80;99.90;;;;;;5095296;28;19991;-75
2022/10/17 04:37:13;;;;;;;;;;;15.80;99.90;;;;;;5095315;28;19904;-75
2022/10/17 04:39:38;;;;;;;;;;;15.70;99.90;;;;;;5095211;28;19904;-75
2022/10/17 04:42:04;;;;;;;;;;;15.70;99.90;;;;;;5095517;28;19911;-75
2022/10/17 04:44:29;;;;;;;;;;;15.70;99.90;;;;;;5076711;28;19951;-75
2022/10/17 04:46:55;;;;;;;;;;;15.70;99.90;;;;;;5095172;28;19986;-75
2022/10/17 04:49:20;;;;;;;;;;;15.70;99.90;;;;;;5094856;28;19911;-75
2022/10/17 04:51:46;;;;;;;;;;;15.70;99.90;;;;;;5094951;28;19904;-74
2022/10/17 04:54:11;;;;;;;;;;;15.70;99.90;;;;;;5094918;28;20241;-75
2022/10/17 04:56:37;;;;;;;;;;;15.70;99.90;;;;;;5094755;28;20010;-74
2022/10/17 04:59:02;;;;;;;;;;;15.60;99.90;;;;;;5095140;28;19910;-75
2022/10/17 05:01:28;;;;;;;;;;;15.70;99.90;;;;;;5094684;28;19904;-74
2022/10/17 05:03:54;;;;;;;;;;;15.60;99.90;;;;;;5094649;28;19915;-74
2022/10/17 05:06:23;;;;;;;;;;;15.60;99.90;;;;;;5094471;28;20355;-75
2022/10/17 05:08:49;;;;;;;;;;;15.60;99.90;;;;;;5094907;28;19904;-74
2022/10/17 05:11:16;;;;;;;;;;;15.60;99.90;;;;;;5094417;28;20265;-74
2022/10/17 05:13:42;;;;;;;;;;;15.60;99.90;;;;;;5094571;28;19908;-74
2022/10/17 05:16:07;;;;;;;;;;;15.60;99.90;;;;;;5094489;28;19914;-74
2022/10/17 05:18:33;;;;;;;;;;;15.60;99.90;;;;;;5076351;28;19904;-74
2022/10/17 05:20:58;;;;;;;;;;;15.60;99.90;;;;;;5094772;28;19908;-74
2022/10/17 05:23:24;;;;;;;;;;;15.60;99.90;;;;;;5094373;28;19904;-75
2022/10/17 05:25:54;;;;;;;;;;;15.60;99.90;;;;;;5076064;28;19915;-74
2022/10/17 05:28:20;;;;;;;;;;;15.60;99.90;;;;;;5076747;28;20404;-75
2022/10/17 05:30:45;;;;;;;;;;;15.60;99.90;;;;;;5093900;28;19970;-74
2022/10/17 05:33:11;;;;;;;;;;;15.60;99.90;;;;;;5094624;28;19919;-74
2022/10/17 05:35:36;;;;;;;;;;;15.50;99.90;;;;;;5094154;28;19995;-75
2022/10/17 05:38:02;;;;;;;;;;;15.50;99.90;;;;;;5094391;28;19910;-74
2022/10/17 05:40:27;;;;;;;;;;;15.50;99.90;;;;;;5076073;28;19915;-75
2022/10/17 05:42:53;;;;;;;;;;;15.50;99.90;;;;;;5094698;28;19904;-74
2022/10/17 05:45:18;;;;;;;;;;;15.50;99.90;;;;;;5094028;28;19915;-75
2022/10/17 05:47:44;;;;;;;;;;;15.50;99.90;;;;;;5094244;28;19994;-74
2022/10/17 05:50:10;;;;;;;;;;;15.50;99.90;;;;;;5075834;28;20363;-75
2022/10/17 05:52:36;;;;;;;;;;;15.50;99.90;;;;;;5094570;28;19910;-75
2022/10/17 05:55:02;;;;;;;;;;;15.50;99.90;;;;;;5094091;28;19905;-75
2022/10/17 05:57:27;;;;;;;;;;;15.50;99.90;;;;;;5094685;28;19908;-75
2022/10/17 05:59:53;;;;;;;;;;;15.50;99.90;;;;;;5093888;28;19930;-75
2022/10/17 06:02:18;;;;;;;;;;;15.60;99.90;;;;;;5094100;28;19911;-74
2022/10/17 06:04:45;;;;;;;;;;;15.60;99.90;;;;;;5094426;28;19953;-75
2022/10/17 06:07:11;;;;;;;;;;;15.60;99.90;;;;;;5094191;28;19990;-75
2022/10/17 06:09:37;;;;;;;;;;;15.60;99.90;;;;;;5093866;28;19904;-74
2022/10/17 06:12:03;;;;;;;;;;;15.60;99.90;;;;;;5094079;28;19911;-74
2022/10/17 06:14:28;;;;;;;;;;;15.60;99.90;;;;;;5093927;28;19904;-75
2022/10/17 06:16:54;;;;;;;;;;;15.60;99.90;;;;;;5075763;28;19904;-75
2022/10/17 06:19:19;;;;;;;;;;;15.60;99.90;;;;;;5094060;28;19904;-74
2022/10/17 06:21:45;;;;;;;;;;;15.50;99.90;;;;;;5093774;28;19954;-75
2022/10/17 06:24:10;;;;;;;;;;;15.60;99.90;;;;;;5095882;28;20374;-75
2022/10/17 06:26:36;;;;;;;;;;;15.60;99.90;;;;;;5079548;28;19951;-75
2022/10/17 06:29:02;;;;;;;;;;;15.60;99.90;;;;;;5079321;28;20006;-74
2022/10/17 06:31:27;;;;;;;;;;;15.60;99.90;;;;;;5096951;28;19963;-75
2022/10/17 06:33:53;;;;;;;;;;;15.60;99.90;;;;;;5097817;28;19904;-75
2022/10/17 06:36:19;;;;;;;;;;;15.60;99.90;;;;;;5097537;28;19904;-74
2022/10/17 06:38:44;;;;;;;;;;;15.50;99.90;;;;;;5097819;28;19904;-75
2022/10/17 06:41:14;;;;;;;;;;;15.50;99.90;;;;;;5097509;28;19904;-74
2022/10/17 06:43:42;;;;;;;;;;;15.50;99.90;;;;;;5097391;28;20374;-74
2022/10/17 06:46:08;;;;;;;;;;;15.50;99.90;;;;;;5097355;28;19904;-75
2022/10/17 06:48:33;;;;;;;;;;;15.50;99.90;;;;;;5097441;28;19998;-76
2022/10/17 06:51:00;;;;;;;;;;;15.50;99.90;;;;;;5072080;28;20009;-74
2022/10/17 06:53:29;;;;;;;;;;;15.50;99.90;;;;;;5081107;28;19909;-75
2022/10/17 06:55:57;;;;;;;;;;;15.50;99.90;;;;;;5077418;28;20315;-76
2022/10/17 06:58:22;;;;;;;;;;;15.50;99.90;;;;;;5076364;28;19954;-77
2022/10/17 07:00:48;;;;;;;;;;;15.50;99.90;;;;;;5076151;28;19916;-76
2022/10/17 07:03:13;;;;;;;;;;;15.50;99.90;;;;;;5081462;28;19916;-76
2022/10/17 07:05:39;;;;;;;;;;;15.50;99.90;;;;;;5076524;28;19912;-76
2022/10/17 07:08:04;;;;;;;;;;;15.50;99.90;;;;;;5076033;28;19915;-77
2022/10/17 07:10:37;;;;;;;;;;;15.60;99.90;;;;;;5077034;28;19948;-76
2022/10/17 07:13:02;;;;;;;;;;;15.50;99.90;;;;;;5076367;28;19908;-73
2022/10/17 07:15:28;;;;;;;;;;;15.60;99.90;;;;;;5076108;28;19919;-77
2022/10/17 07:17:54;;;;;;;;;;;15.60;99.90;;;;;;5058503;28;19905;-77
2022/10/17 07:20:19;;;;;;;;;;;15.60;99.90;;;;;;5076474;28;19909;-81
2022/10/17 07:22:45;;;;;;;;;;;15.70;99.90;;;;;;5076231;28;19904;-75
2022/10/17 07:25:10;;;;;;;;;;;15.60;99.90;;;;;;5075185;28;19920;-75
2022/10/17 07:27:35;;;;;;;;;;;15.70;99.90;;;;;;5076045;28;19940;-76
2022/10/17 07:30:01;;;;;;;;;;;15.70;99.90;;;;;;5057896;28;19905;-76
2022/10/17 07:32:27;;;;;;;;;;;15.70;99.90;;;;;;5049398;28;19923;-75
2022/10/17 07:34:53;;;;;;;;;;;15.70;99.90;;;;;;5055216;28;19932;-75
2022/10/17 07:37:18;;;;;;;;;;;15.70;99.90;;;;;;5056345;28;20353;-77
2022/10/17 07:39:44;;;;;;;;;;;15.70;99.90;;;;;;5056024;28;20375;-76
2022/10/17 07:42:09;;;;;;;;;;;15.70;99.90;;;;;;5056289;28;19905;-76
2022/10/17 07:44:35;;;;;;;;;;;15.70;99.90;;;;;;5056011;28;19908;-76
2022/10/17 07:47:00;;;;;;;;;;;15.80;99.90;;;;;;5055853;28;20276;-74
2022/10/17 07:49:26;;;;;;;;;;;15.80;99.90;;;;;;5056040;28;19904;-76
2022/10/17 07:51:51;;;;;;;;;;;15.80;99.90;;;;;;5037862;28;19913;-75
2022/10/17 07:54:17;;;;;;;;;;;15.80;99.90;;;;;;5056121;28;19920;-75
2022/10/17 07:56:43;;;;;;;;;;;15.80;99.90;;;;;;5055755;28;20262;-77
2022/10/17 07:59:08;;;;;;;;;;;15.90;99.90;;;;;;5056273;28;19909;-76
2022/10/17 08:01:34;;;;;;;;;;;15.90;99.90;;;;;;5055635;28;19936;-74
2022/10/17 08:03:59;;;;;;;;;;;15.90;99.90;;;;;;5055701;28;19954;-78
2022/10/17 08:06:25;;;;;;;;;;;15.80;99.90;;;;;;5055524;28;19905;-79
2022/10/17 08:08:50;;;;;;;;;;;15.90;99.90;;;;;;5055913;28;20312;-75
2022/10/17 08:11:16;;;;;;;;;;;15.80;99.90;;;;;;5054473;28;20399;-78
2022/10/17 08:13:42;;;;;;;;;;;15.90;99.90;;;;;;5054198;28;19912;-78
2022/10/17 08:16:09;;;;;;;;;;;15.80;99.90;;;;;;5054705;28;19916;-74
2022/10/17 08:18:35;;;;;;;;;;;15.90;99.90;;;;;;5054406;28;20384;-75
2022/10/17 08:21:01;;;;;;;;;;;15.80;99.90;;;;;;5054851;28;19905;-77
2022/10/17 08:23:27;;;;;;;;;;;15.80;99.90;;;;;;5055159;28;19905;-75
2022/10/17 08:25:52;;;;;;;;;;;15.80;99.90;;;;;;5055345;28;19916;-76
2022/10/17 08:28:18;;;;;;;;;;;15.90;99.90;;;;;;5054048;28;19915;-77
2022/10/17 08:30:43;;;;;;;;;;;15.90;99.90;;;;;;5055029;28;19992;-76
2022/10/17 08:33:11;;;;;;;;;;;15.90;99.90;;;;;;5054065;28;19924;-76
2022/10/17 08:35:37;;;;;;;;;;;16.00;99.90;;;;;;5054547;28;19909;-81
2022/10/17 08:38:02;;;;;;;;;;;16.00;99.90;;;;;;5054615;28;20015;-77
2022/10/17 08:40:32;;;;;;;;;;;16.10;99.90;;;;;;5055002;28;19908;-74
2022/10/17 08:43:06;;;;;;;;;;;16.10;99.90;;;;;;5055157;28;19905;-74
2022/10/17 08:45:40;;;;;;;;;;;16.10;99.90;;;;;;5054554;28;19908;-79
2022/10/17 08:48:13;;;;;;;;;;;16.10;99.90;;;;;;5055237;28;19912;-78
2022/10/17 08:50:44;;;;;;;;;;;16.20;99.90;;;;;;5054461;28;19912;-79
2022/10/17 08:53:23;;;;;;;;;;;16.20;99.90;;;;;;5036775;28;19995;-78
2022/10/17 08:55:49;;;;;;;;;;;16.30;99.90;;;;;;5054561;28;19948;-79
2022/10/17 08:58:15;;;;;;;;;;;16.30;99.90;;;;;;5054606;28;19904;-78
2022/10/17 09:00:54;;;;;;;;;;;16.40;99.90;;;;;;5054549;28;19970;-75
2022/10/17 09:03:43;;;;;;;;;;;16.40;99.90;;;;;;5054869;28;20366;-77
2022/10/17 09:06:17;;;;;;;;;;;16.40;99.90;;;;;;5046112;28;19908;-76
2022/10/17 09:08:54;;;;;;;;;;;16.40;99.90;;;;;;5054886;28;19905;-76
2022/10/17 09:11:23;;;;;;;;;;;16.40;99.90;;;;;;5054238;28;19912;-77
2022/10/17 09:14:04;;;;;;;;;;;16.50;99.90;;;;;;5036498;28;19962;-76
2022/10/17 09:16:29;;;;;;;;;;;16.50;99.90;;;;;;5055265;28;19912;-77
2022/10/17 09:19:18;;;;;;;;;;;16.50;99.90;;;;;;5055391;28;19905;-77
2022/10/17 09:21:47;;;;;;;;;;;16.50;99.90;;;;;;5046292;28;19904;-76
2022/10/17 09:24:16;;;;;;;;;;;16.50;99.90;;;;;;5054408;28;19912;-77
2022/10/17 09:26:43;;;;;;;;;;;16.60;99.90;;;;;;5054157;28;19905;-76
2022/10/17 09:29:13;;;;;;;;;;;16.50;99.90;;;;;;5054446;28;19911;-76
2022/10/17 09:31:41;;;;;;;;;;;16.60;99.90;;;;;;5054363;28;19916;-77
2022/10/17 09:34:08;;;;;;;;;;;16.60;99.90;;;;;;5054662;28;19905;-76
2022/10/17 09:36:34;;;;;;;;;;;16.60;99.90;;;;;;5053999;28;19905;-76
2022/10/17 09:39:00;;;;;;;;;;;16.70;99.90;;;;;;5053038;28;19935;-79
2022/10/17 09:41:31;;;;;;;;;;;16.60;99.90;;;;;;5052896;28;20387;-79
2022/10/17 09:43:58;;;;;;;;;;;16.60;99.90;;;;;;5035795;28;20291;-81
2022/10/17 09:46:35;;;;;;;;;;;16.60;99.90;;;;;;5054074;28;19904;-75
2022/10/17 09:49:03;;;;;;;;;;;16.70;99.90;;;;;;5054440;28;19905;-74
2022/10/17 09:51:30;;;;;;;;;;;16.70;99.90;;;;;;5054002;28;19905;-77
2022/10/17 09:54:00;;;;;;;;;;;16.70;99.90;;;;;;5054480;28;19905;-75
2022/10/17 09:56:26;;;;;;;;;;;16.60;99.90;;;;;;5053896;28;19947;-78
2022/10/17 09:58:54;;;;;;;;;;;16.60;99.90;;;;;;5055848;28;19904;-76
2022/10/17 10:01:21;;;;;;;;;;;16.60;99.90;;;;;;5057939;28;20398;-76
2022/10/17 10:03:48;;;;;;;;;;;16.60;99.90;;;;;;5039800;28;19948;-77
2022/10/17 10:06:15;;;;;;;;;;;16.70;99.90;;;;;;5057792;28;19905;-76
2022/10/17 10:08:48;;;;;;;;;;;16.80;99.90;;;;;;5058032;28;19975;-75
2022/10/17 10:11:14;;;;;;;;;;;16.70;99.90;;;;;;5058069;28;19911;-77
2022/10/17 10:13:40;;;;;;;;;;;16.70;99.90;;;;;;5057133;28;19912;-76
2022/10/17 10:16:31;;;;;;;;;;;16.70;99.90;;;;;;5057550;28;19912;-77
2022/10/17 10:18:57;;;;;;;;;;;16.70;99.90;;;;;;5037799;28;19912;-77
2022/10/17 10:21:24;;;;;;;;;;;16.70;99.90;;;;;;5057721;28;19905;-75
2022/10/17 10:24:05;;;;;;;;;;;16.70;99.90;;;;;;5039658;28;20365;-79
2022/10/17 10:26:33;;;;;;;;;;;16.80;99.90;;;;;;5058075;28;20375;-78
2022/10/17 10:29:04;;;;;;;;;;;16.90;99.90;;;;;;5057421;28;19948;-76
2022/10/17 10:31:36;;;;;;;;;;;16.90;99.90;;;;;;5057244;28;19959;-77
2022/10/17 10:34:12;;;;;;;;;;;17.00;99.90;;;;;;5058099;28;19948;-79
2022/10/17 10:36:45;;;;;;;;;;;17.00;99.90;;;;;;5057426;28;19912;-75
2022/10/17 10:39:24;;;;;;;;;;;17.10;99.90;;;;;;5056948;28;19931;-74
2022/10/17 10:41:50;;;;;;;;;;;17.10;99.90;;;;;;5055497;28;19912;-74
2022/10/17 10:44:23;;;;;;;;;;;17.10;99.90;;;;;;5056903;28;19908;-76
2022/10/17 10:47:04;;;;;;;;;;;17.10;99.90;;;;;;5057092;28;20038;-76
2022/10/17 10:49:31;;;;;;;;;;;17.00;99.90;;;;;;5056697;28;19958;-75
2022/10/17 10:51:59;;;;;;;;;;;16.90;99.90;;;;;;5057297;28;19905;-74
2022/10/17 10:54:28;;;;;;;;;;;17.00;99.90;;;;;;5057311;28;19905;-75
2022/10/17 10:56:55;;;;;;;;;;;16.90;99.90;;;;;;5057088;28;19911;-74
2022/10/17 10:59:24;;;;;;;;;;;16.90;99.90;;;;;;5057233;28;19944;-74
2022/10/17 11:01:52;;;;;;;;;;;16.90;99.90;;;;;;5039059;28;20387;-74
2022/10/17 11:04:32;;;;;;;;;;;16.90;99.90;;;;;;5056994;28;19920;-74
2022/10/17 11:07:06;;;;;;;;;;;17.00;99.90;;;;;;5056815;28;19909;-75
2022/10/17 11:09:36;;;;;;;;;;;17.00;99.90;;;;;;5056149;28;19995;-75
2022/10/17 11:12:15;;;;;;;;;;;16.90;99.90;;;;;;5057077;28;19904;-75
2022/10/17 11:14:45;;;;;;;;;;;16.90;99.90;;;;;;5056926;28;20012;-75
2022/10/17 11:17:18;;;;;;;;;;;16.90;99.90;;;;;;5056752;28;20383;-75
2022/10/17 11:19:48;;;;;;;;;;;16.90;99.90;;;;;;5056852;28;19905;-75
2022/10/17 11:22:26;;;;;;;;;;;17.00;99.90;;;;;;5056963;28;19911;-75
2022/10/17 11:24:59;;;;;;;;;;;17.00;99.90;;;;;;5056662;28;20281;-75
2022/10/17 11:27:27;;;;;;;;;;;17.00;99.90;;;;;;5056412;28;19905;-74
2022/10/17 11:29:52;;;;;;;;;;;17.10;99.90;;;;;;5056275;28;19905;-75
2022/10/17 11:32:21;;;;;;;;;;;17.10;99.90;;;;;;5055664;28;19928;-74
2022/10/17 11:35:07;;;;;;;;;;;17.10;99.90;;;;;;5056299;28;20369;-74
2022/10/17 11:37:38;;;;;;;;;;;17.20;99.90;;;;;;5055618;28;20042;-75
2022/10/17 11:40:07;;;;;;;;;;;17.20;99.90;;;;;;5056236;28;19954;-75
2022/10/17 11:42:34;;;;;;;;;;;17.30;99.90;;;;;;5056278;28;19912;-74
2022/10/17 11:45:08;;;;;;;;;;;17.30;99.90;;;;;;5055871;28;20276;-76
2022/10/17 11:47:39;;;;;;;;;;;17.30;99.90;;;;;;5056238;28;20287;-75
2022/10/17 11:50:08;;;;;;;;;;;17.30;99.90;;;;;;5056103;28;20399;-75
2022/10/17 11:52:37;;;;;;;;;;;17.30;99.90;;;;;;5056599;28;19964;-75
2022/10/17 11:55:33;;;;;;;;;;;17.50;99.90;;;;;;5056057;28;20361;-74
2022/10/17 11:58:07;;;;;;;;;;;17.50;99.90;;;;;;5043026;28;19908;-75
2022/10/17 12:00:42;;;;;;;;;;;17.70;99.90;;;;;;5056404;28;19905;-75
2022/10/17 12:03:13;;;;;;;;;;;17.70;99.90;;;;;;5037871;28;19904;-74
2022/10/17 12:05:41;;;;;;;;;;;17.70;99.90;;;;;;5056236;28;19918;-76
2022/10/17 12:08:14;;;;;;;;;;;17.60;99.90;;;;;;5055713;28;20254;-78
2022/10/17 12:11:03;;;;;;;;;;;17.60;99.90;;;;;;5056245;28;19904;-76
2022/10/17 12:13:29;;;;;;;;;;;17.70;99.90;;;;;;5047418;28;19915;-76
2022/10/17 12:15:55;;;;;;;;;;;17.70;99.90;;;;;;5056055;28;19991;-80
2022/10/17 12:18:22;;;;;;;;;;;17.70;99.90;;;;;;5055751;28;19966;-80
2022/10/17 12:20:58;;;;;;;;;;;17.80;99.90;;;;;;5055216;28;19904;-78
2022/10/17 12:23:27;;;;;;;;;;;17.90;99.90;;;;;;5055479;28;19958;-78
2022/10/17 12:26:00;;;;;;;;;;;18.00;99.90;;;;;;5055594;28;19909;-76
2022/10/17 12:28:27;;;;;;;;;;;17.90;99.90;;;;;;5055266;28;20288;-77
2022/10/17 12:30:56;;;;;;;;;;;17.90;99.90;;;;;;5055260;28;19912;-77
2022/10/17 12:33:25;;;;;;;;;;;17.90;99.90;;;;;;5054608;28;19917;-77
2022/10/17 12:36:11;;;;;;;;;;;17.80;99.90;;;;;;5055155;28;20070;-78
2022/10/17 12:38:36;;;;;;;;;;;17.90;99.90;;;;;;5068695;28;19908;-79
2022/10/17 12:41:03;;;;;;;;;;;17.90;99.90;;;;;;5075195;28;19911;-77
2022/10/17 12:43:28;;;;;;;;;;;17.90;99.90;;;;;;5075435;28;19969;-76
2022/10/17 12:45:54;;;;;;;;;;;17.90;99.90;;;;;;5074960;28;19948;-78
2022/10/17 12:48:38;;;;;;;;;;;17.90;99.90;;;;;;5075144;28;19911;-76
2022/10/17 12:51:09;;;;;;;;;;;17.90;99.90;;;;;;5056844;28;19905;-78
2022/10/17 12:53:53;;;;;;;;;;;17.90;99.90;;;;;;5075109;28;19904;-76
2022/10/17 12:56:20;;;;;;;;;;;17.90;99.90;;;;;;5074992;28;19915;-78
2022/10/17 12:58:47;;;;;;;;;;;17.90;99.90;;;;;;5074748;28;19904;-77
2022/10/17 13:01:15;;;;;;;;;;;17.90;99.90;;;;;;5074614;28;19905;-78
2022/10/17 13:03:43;;;;;;;;;;;17.80;99.90;;;;;;5074539;28;19904;-77
2022/10/17 13:06:19;;;;;;;;;;;17.90;99.90;;;;;;5074492;28;20284;-76
2022/10/17 13:08:47;;;;;;;;;;;17.90;99.90;;;;;;5074970;28;19904;-76
2022/10/17 13:11:14;;;;;;;;;;;17.90;99.90;;;;;;5074468;28;19908;-78
2022/10/17 13:13:47;;;;;;;;;;;17.90;99.90;;;;;;5074580;28;19904;-79
2022/10/17 13:16:32;;;;;;;;;;;17.90;99.90;;;;;;5074479;28;19911;-78
2022/10/17 13:18:58;;;;;;;;;;;17.90;99.90;;;;;;5074827;28;19998;-77
2022/10/17 13:21:24;;;;;;;;;;;18.00;99.90;;;;;;5074457;28;20356;-78
2022/10/17 13:23:51;;;;;;;;;;;18.00;99.90;;;;;;5074214;28;19904;-77
2022/10/17 13:26:22;;;;;;;;;;;18.00;99.90;;;;;;5074181;28;19947;-74
2022/10/17 13:28:59;;;;;;;;;;;18.10;99.90;;;;;;5074493;28;19904;-75
2022/10/17 13:31:26;;;;;;;;;;;18.10;99.90;;;;;;5074337;28;20462;-75
2022/10/17 13:33:54;;;;;;;;;;;18.10;99.90;;;;;;5074053;28;19904;-76
2022/10/17 13:36:20;;;;;;;;;;;18.20;99.90;;;;;;5073497;28;19927;-74
2022/10/17 13:38:45;;;;;;;;;;;18.20;99.90;;;;;;5056181;28;20376;-76
2022/10/17 13:41:13;;;;;;;;;;;18.20;99.90;;;;;;5074134;28;19908;-76
2022/10/17 13:43:39;;;;;;;;;;;18.20;99.90;;;;;;5074308;28;19909;-76
2022/10/17 13:46:05;;;;;;;;;;;18.20;99.90;;;;;;5073837;28;20365;-76
2022/10/17 13:48:33;;;;;;;;;;;18.20;99.90;;;;;;5074124;28;19950;-77
2022/10/17 13:51:00;;;;;;;;;;;18.20;99.90;;;;;;5073912;28;20296;-76
2022/10/17 13:53:40;;;;;;;;;;;18.30;99.90;;;;;;5073878;28;19912;-77
2022/10/17 13:56:16;;;;;;;;;;;18.20;99.90;;;;;;5055887;28;19934;-77
2022/10/17 13:58:44;;;;;;;;;;;18.20;99.90;;;;;;5055573;28;20006;-76
2022/10/17 14:01:10;;;;;;;;;;;18.20;99.90;;;;;;5074302;28;19952;-77
2022/10/17 14:03:38;;;;;;;;;;;18.20;99.90;;;;;;5074556;28;19905;-77
2022/10/17 14:06:06;;;;;;;;;;;18.10;99.90;;;;;;5074158;28;19948;-76
2022/10/17 14:08:33;;;;;;;;;;;18.10;99.90;;;;;;5073740;28;20356;-75
2022/10/17 14:10:59;;;;;;;;;;;18.10;99.90;;;;;;5073859;28;19908;-73
2022/10/17 14:13:25;;;;;;;;;;;18.10;99.90;;;;;;5055733;28;20261;-78
2022/10/17 14:15:52;;;;;;;;;;;18.10;99.90;;;;;;5073737;28;19965;-77
2022/10/17 14:18:20;;;;;;;;;;;18.10;99.90;;;;;;5075219;28;19905;-77
2022/10/17 14:20:46;;;;;;;;;;;18.10;99.90;;;;;;5073660;28;19905;-77
2022/10/17 14:23:28;;;;;;;;;;;18.10;99.90;;;;;;5074094;28;19908;-77
2022/10/17 14:26:06;;;;;;;;;;;18.10;99.90;;;;;;5055478;28;20288;-77